createdAt,value
2018-03-29T00:00:36.606Z,962.34
2018-03-29T00:01:36.529Z,962.41
2018-03-29T00:02:36.455Z,962.39
2018-03-29T00:03:36.377Z,962.37
2018-03-29T00:04:36.298Z,962.27
2018-03-29T00:05:36.223Z,962.24
2018-03-29T00:06:36.147Z,962.21
2018-03-29T00:07:36.064Z,962.23
2018-03-29T00:08:35.992Z,962.25
2018-03-29T00:09:35.907Z,962.26
2018-03-29T00:10:35.840Z,962.28
2018-03-29T00:11:35.760Z,962.41
2018-03-29T00:12:35.687Z,962.54
2018-03-29T00:13:35.602Z,962.58
2018-03-29T00:14:35.533Z,962.61
2018-03-29T00:15:35.446Z,962.66
2018-03-29T00:16:35.376Z,962.71
2018-03-29T00:17:35.291Z,962.72
2018-03-29T00:18:35.222Z,962.70
2018-03-29T00:19:35.137Z,962.65
2018-03-29T00:20:36.068Z,962.77
2018-03-29T00:21:34.982Z,962.76
2018-03-29T00:22:34.915Z,962.75
2018-03-29T00:23:34.825Z,962.75
2018-03-29T00:24:34.760Z,962.83
2018-03-29T00:25:34.681Z,962.71
2018-03-29T00:26:34.606Z,962.54
2018-03-29T00:27:34.525Z,962.52
2018-03-29T00:28:34.451Z,962.58
2018-03-29T00:29:34.367Z,962.71
2018-03-29T00:30:34.297Z,962.81
2018-03-29T00:31:34.212Z,963.00
2018-03-29T00:32:34.147Z,963.04
2018-03-29T00:33:34.061Z,963.03
2018-03-29T00:34:33.988Z,963.07
2018-03-29T00:35:33.907Z,963.15
2018-03-29T00:36:33.835Z,963.20
2018-03-29T00:37:33.751Z,963.20
2018-03-29T00:38:33.679Z,963.25
2018-03-29T00:39:33.594Z,963.31
2018-03-29T00:40:33.528Z,963.34
2018-03-29T00:41:33.451Z,963.39
2018-03-29T00:42:33.376Z,963.46
2018-03-29T00:43:33.285Z,963.36
2018-03-29T00:44:33.216Z,963.41
2018-03-29T00:45:33.131Z,963.53
2018-03-29T00:46:33.062Z,963.49
2018-03-29T00:47:32.977Z,963.42
2018-03-29T00:48:32.905Z,963.42
2018-03-29T00:49:32.829Z,963.52
2018-03-29T00:50:32.745Z,963.43
2018-03-29T00:51:32.675Z,963.34
2018-03-29T00:52:32.587Z,963.38
2018-03-29T00:53:32.518Z,963.45
2018-03-29T00:54:32.435Z,963.48
2018-03-29T00:55:32.360Z,963.45
2018-03-29T00:56:32.278Z,963.48
2018-03-29T00:57:32.219Z,963.62
2018-03-29T00:58:32.130Z,963.64
2018-03-29T00:59:32.049Z,963.79
2018-03-29T01:00:31.965Z,963.82
2018-03-29T01:01:31.900Z,963.80
2018-03-29T01:02:31.816Z,963.76
2018-03-29T01:03:31.748Z,963.79
2018-03-29T01:04:31.660Z,963.80
2018-03-29T01:05:31.592Z,963.86
2018-03-29T01:06:31.507Z,963.90
2018-03-29T01:07:31.432Z,963.94
2018-03-29T01:08:31.351Z,964.05
2018-03-29T01:09:31.278Z,964.12
2018-03-29T01:10:31.191Z,964.15
2018-03-29T01:11:31.133Z,964.08
2018-03-29T01:12:31.038Z,964.10
2018-03-29T01:13:30.969Z,964.12
2018-03-29T01:14:30.889Z,964.15
2018-03-29T01:15:30.818Z,964.18
2018-03-29T01:16:30.725Z,964.19
2018-03-29T01:17:31.660Z,964.19
2018-03-29T01:18:30.574Z,964.29
2018-03-29T01:19:30.499Z,964.31
2018-03-29T01:20:30.419Z,964.31
2018-03-29T01:21:30.344Z,964.27
2018-03-29T01:22:30.262Z,964.20
2018-03-29T01:23:30.189Z,964.15
2018-03-29T01:24:30.113Z,964.22
2018-03-29T01:25:30.027Z,964.31
2018-03-29T01:26:29.962Z,964.33
2018-03-29T01:27:29.871Z,964.31
2018-03-29T01:28:29.810Z,964.39
2018-03-29T01:29:29.717Z,964.28
2018-03-29T01:30:29.647Z,964.33
2018-03-29T01:31:29.563Z,964.36
2018-03-29T01:32:29.486Z,964.39
2018-03-29T01:33:29.405Z,964.36
2018-03-29T01:34:29.337Z,964.38
2018-03-29T01:35:29.254Z,964.46
2018-03-29T01:36:29.173Z,964.46
2018-03-29T01:37:29.102Z,964.53
2018-03-29T01:38:29.013Z,964.57
2018-03-29T01:39:28.945Z,964.60
2018-03-29T01:40:28.856Z,964.56
2018-03-29T01:41:28.787Z,964.62
2018-03-29T01:42:28.706Z,964.63
2018-03-29T01:43:28.638Z,964.66
2018-03-29T01:44:28.547Z,964.74
2018-03-29T01:45:29.477Z,964.75
2018-03-29T01:46:28.393Z,964.78
2018-03-29T01:47:28.321Z,964.73
2018-03-29T01:48:28.236Z,964.79
2018-03-29T01:49:28.169Z,964.80
2018-03-29T01:50:28.079Z,964.79
2018-03-29T01:51:28.012Z,964.86
2018-03-29T01:52:27.928Z,964.90
2018-03-29T01:53:27.854Z,964.85
2018-03-29T01:54:27.771Z,964.88
2018-03-29T01:55:27.699Z,964.92
2018-03-29T01:56:27.612Z,964.92
2018-03-29T01:57:27.542Z,964.91
2018-03-29T01:58:27.457Z,964.88
2018-03-29T01:59:27.386Z,964.88
2018-03-29T02:00:27.306Z,964.88
2018-03-29T02:01:27.230Z,964.88
2018-03-29T02:02:27.143Z,964.90
2018-03-29T02:03:27.082Z,964.90
2018-03-29T02:04:26.989Z,964.83
2018-03-29T02:05:26.926Z,964.85
2018-03-29T02:06:26.832Z,964.86
2018-03-29T02:07:26.758Z,964.84
2018-03-29T02:08:26.677Z,964.90
2018-03-29T02:09:26.609Z,964.96
2018-03-29T02:10:26.529Z,964.88
2018-03-29T02:11:26.448Z,964.94
2018-03-29T02:12:26.370Z,964.95
2018-03-29T02:13:26.300Z,964.90
2018-03-29T02:14:26.224Z,964.93
2018-03-29T02:15:26.143Z,964.93
2018-03-29T02:16:26.064Z,964.94
2018-03-29T02:17:25.983Z,964.97
2018-03-29T02:18:25.901Z,964.99
2018-03-29T02:19:25.830Z,964.98
2018-03-29T02:20:25.750Z,965.06
2018-03-29T02:21:25.673Z,965.07
2018-03-29T02:22:25.587Z,965.04
2018-03-29T02:23:25.522Z,965.10
2018-03-29T02:24:25.431Z,965.06
2018-03-29T02:25:25.361Z,965.08
2018-03-29T02:26:25.274Z,965.10
2018-03-29T02:27:25.202Z,965.14
2018-03-29T02:28:25.119Z,965.14
2018-03-29T02:29:25.045Z,965.15
2018-03-29T02:30:24.963Z,965.17
2018-03-29T02:31:24.892Z,965.24
2018-03-29T02:32:24.804Z,965.24
2018-03-29T02:33:24.740Z,965.17
2018-03-29T02:34:24.652Z,965.24
2018-03-29T02:35:24.577Z,965.25
2018-03-29T02:36:24.492Z,965.27
2018-03-29T02:37:24.431Z,965.25
2018-03-29T02:38:24.338Z,965.21
2018-03-29T02:39:24.265Z,965.14
2018-03-29T02:40:24.179Z,965.22
2018-03-29T02:41:24.106Z,965.21
2018-03-29T02:42:24.030Z,965.20
2018-03-29T02:43:23.955Z,965.19
2018-03-29T02:44:23.868Z,965.22
2018-03-29T02:45:23.800Z,965.23
2018-03-29T02:46:23.714Z,965.21
2018-03-29T02:47:23.642Z,965.21
2018-03-29T02:48:23.559Z,965.26
2018-03-29T02:49:23.488Z,965.27
2018-03-29T02:50:23.400Z,965.28
2018-03-29T02:51:23.342Z,965.28
2018-03-29T02:52:23.243Z,965.33
2018-03-29T02:53:23.174Z,965.35
2018-03-29T02:54:23.090Z,965.30
2018-03-29T02:55:23.015Z,965.32
2018-03-29T02:56:22.932Z,965.30
2018-03-29T02:57:22.866Z,965.28
2018-03-29T02:58:22.768Z,965.29
2018-03-29T02:59:23.702Z,965.34
2018-03-29T03:00:22.618Z,965.40
2018-03-29T03:01:22.550Z,965.40
2018-03-29T03:02:22.467Z,965.44
2018-03-29T03:03:22.392Z,965.42
2018-03-29T03:04:22.314Z,965.46
2018-03-29T03:05:22.234Z,965.44
2018-03-29T03:06:22.148Z,965.48
2018-03-29T03:07:22.077Z,965.49
2018-03-29T03:08:21.992Z,965.52
2018-03-29T03:09:21.924Z,965.55
2018-03-29T03:10:21.835Z,965.57
2018-03-29T03:11:21.835Z,965.62
2018-03-29T03:12:21.678Z,965.63
2018-03-29T03:13:21.644Z,965.62
2018-03-29T03:14:21.520Z,965.66
2018-03-29T03:15:21.549Z,965.71
2018-03-29T03:16:21.365Z,965.69
2018-03-29T03:17:21.357Z,965.73
2018-03-29T03:18:21.209Z,965.73
2018-03-29T03:19:21.142Z,965.72
2018-03-29T03:20:21.053Z,965.74
2018-03-29T03:21:20.980Z,965.76
2018-03-29T03:22:20.896Z,965.78
2018-03-29T03:23:20.883Z,965.80
2018-03-29T03:24:20.743Z,965.78
2018-03-29T03:25:20.692Z,965.82
2018-03-29T03:26:20.591Z,965.85
2018-03-29T03:27:20.604Z,965.86
2018-03-29T03:28:20.425Z,965.87
2018-03-29T03:29:20.410Z,965.88
2018-03-29T03:30:20.275Z,965.91
2018-03-29T03:31:20.219Z,965.92
2018-03-29T03:32:20.108Z,965.99
2018-03-29T03:33:20.040Z,966.02
2018-03-29T03:34:19.955Z,966.03
2018-03-29T03:35:19.939Z,966.04
2018-03-29T03:36:19.800Z,966.04
2018-03-29T03:37:19.748Z,966.03
2018-03-29T03:38:19.641Z,966.06
2018-03-29T03:39:19.569Z,966.06
2018-03-29T03:40:19.487Z,966.13
2018-03-29T03:41:19.468Z,966.12
2018-03-29T03:42:19.327Z,966.19
2018-03-29T03:43:19.276Z,966.20
2018-03-29T03:44:19.168Z,966.21
2018-03-29T03:45:19.186Z,966.26
2018-03-29T03:46:19.011Z,966.26
2018-03-29T03:47:18.990Z,966.27
2018-03-29T03:48:18.855Z,966.33
2018-03-29T03:49:18.783Z,966.32
2018-03-29T03:50:18.697Z,966.30
2018-03-29T03:51:18.626Z,966.33
2018-03-29T03:52:18.540Z,966.31
2018-03-29T03:53:18.473Z,966.31
2018-03-29T03:54:18.384Z,966.31
2018-03-29T03:55:18.310Z,966.36
2018-03-29T03:56:18.224Z,966.33
2018-03-29T03:57:18.245Z,966.33
2018-03-29T03:58:18.068Z,966.31
2018-03-29T03:59:17.997Z,966.34
2018-03-29T04:00:17.911Z,966.35
2018-03-29T04:01:17.857Z,966.42
2018-03-29T04:02:17.767Z,966.37
2018-03-29T04:03:17.772Z,966.46
2018-03-29T04:04:17.598Z,966.53
2018-03-29T04:05:17.523Z,966.54
2018-03-29T04:06:17.441Z,966.53
2018-03-29T04:07:17.386Z,966.56
2018-03-29T04:08:17.279Z,966.56
2018-03-29T04:09:17.214Z,966.56
2018-03-29T04:10:17.129Z,966.49
2018-03-29T04:11:17.109Z,966.56
2018-03-29T04:12:16.976Z,966.61
2018-03-29T04:13:16.915Z,966.57
2018-03-29T04:14:16.808Z,966.61
2018-03-29T04:15:17.733Z,966.58
2018-03-29T04:16:16.656Z,966.59
2018-03-29T04:17:16.633Z,966.58
2018-03-29T04:18:16.494Z,966.58
2018-03-29T04:19:16.444Z,966.63
2018-03-29T04:20:16.331Z,966.60
2018-03-29T04:21:17.276Z,966.58
2018-03-29T04:22:16.178Z,966.64
2018-03-29T04:23:16.164Z,966.66
2018-03-29T04:24:16.020Z,966.67
2018-03-29T04:25:15.969Z,966.69
2018-03-29T04:26:15.857Z,966.65
2018-03-29T04:27:15.880Z,966.72
2018-03-29T04:28:15.707Z,966.75
2018-03-29T04:29:15.692Z,966.75
2018-03-29T04:30:15.549Z,966.74
2018-03-29T04:31:15.497Z,966.75
2018-03-29T04:32:15.384Z,966.78
2018-03-29T04:33:15.405Z,966.77
2018-03-29T04:34:15.242Z,966.78
2018-03-29T04:35:15.270Z,966.80
2018-03-29T04:36:15.074Z,966.83
2018-03-29T04:37:15.028Z,966.86
2018-03-29T04:38:14.910Z,966.86
2018-03-29T04:39:14.933Z,966.83
2018-03-29T04:40:14.755Z,966.87
2018-03-29T04:41:14.746Z,966.83
2018-03-29T04:42:14.594Z,966.80
2018-03-29T04:43:14.554Z,966.79
2018-03-29T04:44:14.439Z,966.78
2018-03-29T04:45:14.465Z,966.79
2018-03-29T04:46:14.285Z,966.82
2018-03-29T04:47:14.277Z,966.79
2018-03-29T04:48:14.122Z,966.80
2018-03-29T04:49:14.126Z,966.81
2018-03-29T04:50:13.964Z,966.81
2018-03-29T04:51:13.894Z,966.75
2018-03-29T04:52:13.806Z,966.80
2018-03-29T04:53:13.802Z,966.83
2018-03-29T04:54:13.654Z,966.82
2018-03-29T04:55:13.612Z,966.81
2018-03-29T04:56:13.488Z,966.81
2018-03-29T04:57:13.519Z,966.84
2018-03-29T04:58:13.336Z,966.82
2018-03-29T04:59:13.330Z,966.83
2018-03-29T05:00:13.175Z,966.83
2018-03-29T05:01:13.138Z,966.85
2018-03-29T05:02:13.015Z,966.85
2018-03-29T05:03:12.949Z,966.87
2018-03-29T05:04:12.862Z,966.91
2018-03-29T05:05:12.856Z,966.96
2018-03-29T05:06:12.701Z,966.91
2018-03-29T05:07:12.632Z,966.94
2018-03-29T05:08:12.542Z,966.97
2018-03-29T05:09:12.575Z,966.89
2018-03-29T05:10:12.400Z,966.90
2018-03-29T05:11:12.314Z,966.96
2018-03-29T05:12:12.251Z,966.98
2018-03-29T05:13:12.215Z,967.00
2018-03-29T05:14:12.067Z,966.97
2018-03-29T05:15:12.025Z,966.98
2018-03-29T05:16:11.909Z,967.00
2018-03-29T05:17:12.936Z,966.93
2018-03-29T05:18:11.753Z,966.95
2018-03-29T05:19:11.719Z,967.01
2018-03-29T05:20:11.593Z,966.98
2018-03-29T05:21:11.636Z,967.02
2018-03-29T05:22:11.433Z,967.00
2018-03-29T05:23:11.438Z,967.01
2018-03-29T05:24:11.276Z,967.01
2018-03-29T05:25:11.213Z,967.03
2018-03-29T05:26:11.120Z,967.03
2018-03-29T05:27:11.159Z,967.02
2018-03-29T05:28:10.962Z,967.06
2018-03-29T05:29:10.965Z,967.08
2018-03-29T05:30:10.806Z,967.07
2018-03-29T05:31:10.773Z,967.10
2018-03-29T05:32:10.644Z,967.07
2018-03-29T05:33:10.568Z,967.07
2018-03-29T05:34:10.486Z,967.10
2018-03-29T05:35:10.493Z,967.12
2018-03-29T05:36:10.328Z,967.10
2018-03-29T05:37:10.301Z,967.16
2018-03-29T05:38:10.218Z,967.14
2018-03-29T05:39:10.156Z,967.13
2018-03-29T05:40:10.056Z,967.15
2018-03-29T05:41:10.019Z,967.16
2018-03-29T05:42:09.865Z,967.19
2018-03-29T05:43:09.829Z,967.20
2018-03-29T05:44:09.695Z,967.23
2018-03-29T05:45:09.631Z,967.22
2018-03-29T05:46:09.540Z,967.22
2018-03-29T05:47:09.548Z,967.24
2018-03-29T05:48:09.389Z,967.27
2018-03-29T05:49:09.311Z,967.26
2018-03-29T05:50:09.294Z,967.29
2018-03-29T05:51:09.155Z,967.29
2018-03-29T05:52:09.210Z,967.33
2018-03-29T05:53:08.985Z,967.30
2018-03-29T05:54:09.016Z,967.35
2018-03-29T05:55:08.829Z,967.36
2018-03-29T05:56:08.826Z,967.31
2018-03-29T05:57:08.669Z,967.32
2018-03-29T05:58:08.737Z,967.33
2018-03-29T05:59:08.510Z,967.35
2018-03-29T06:00:08.548Z,967.38
2018-03-29T06:01:08.354Z,967.38
2018-03-29T06:02:08.353Z,967.41
2018-03-29T06:03:08.233Z,967.40
2018-03-29T06:04:08.263Z,967.43
2018-03-29T06:05:08.039Z,967.42
2018-03-29T06:06:08.076Z,967.46
2018-03-29T06:07:07.883Z,967.48
2018-03-29T06:08:07.883Z,967.45
2018-03-29T06:09:07.719Z,967.45
2018-03-29T06:10:07.798Z,967.50
2018-03-29T06:11:07.563Z,967.46
2018-03-29T06:12:07.613Z,967.48
2018-03-29T06:13:07.410Z,967.49
2018-03-29T06:14:07.414Z,967.50
2018-03-29T06:15:07.248Z,967.52
2018-03-29T06:16:07.178Z,967.53
2018-03-29T06:17:07.231Z,967.52
2018-03-29T06:18:07.011Z,967.56
2018-03-29T06:19:07.038Z,967.53
2018-03-29T06:20:06.852Z,967.52
2018-03-29T06:21:06.847Z,967.53
2018-03-29T06:22:06.751Z,967.54
2018-03-29T06:23:06.791Z,967.57
2018-03-29T06:24:06.534Z,967.58
2018-03-29T06:25:06.569Z,967.58
2018-03-29T06:26:06.381Z,967.63
2018-03-29T06:27:06.377Z,967.68
2018-03-29T06:28:06.215Z,967.62
2018-03-29T06:29:06.153Z,967.67
2018-03-29T06:30:06.092Z,967.68
2018-03-29T06:31:06.052Z,967.72
2018-03-29T06:32:05.917Z,967.76
2018-03-29T06:33:05.862Z,967.75
2018-03-29T06:34:05.748Z,967.77
2018-03-29T06:35:05.672Z,967.78
2018-03-29T06:36:05.592Z,967.79
2018-03-29T06:37:05.578Z,967.81
2018-03-29T06:38:05.429Z,967.81
2018-03-29T06:39:05.357Z,967.79
2018-03-29T06:40:05.291Z,967.84
2018-03-29T06:41:05.195Z,967.87
2018-03-29T06:42:05.211Z,967.91
2018-03-29T06:43:05.030Z,967.96
2018-03-29T06:44:05.011Z,967.90
2018-03-29T06:45:04.892Z,967.96
2018-03-29T06:46:04.818Z,967.99
2018-03-29T06:47:04.754Z,967.99
2018-03-29T06:48:04.739Z,967.96
2018-03-29T06:49:04.567Z,967.99
2018-03-29T06:50:04.538Z,967.96
2018-03-29T06:51:04.406Z,967.95
2018-03-29T06:52:04.346Z,967.93
2018-03-29T06:53:04.249Z,967.90
2018-03-29T06:54:04.254Z,967.94
2018-03-29T06:55:04.100Z,967.92
2018-03-29T06:56:04.077Z,967.95
2018-03-29T06:57:03.930Z,967.90
2018-03-29T06:58:03.882Z,967.89
2018-03-29T06:59:03.779Z,967.96
2018-03-29T07:00:03.780Z,967.94
2018-03-29T07:01:03.630Z,967.94
2018-03-29T07:02:03.595Z,967.97
2018-03-29T07:03:03.458Z,968.03
2018-03-29T07:04:03.400Z,968.10
2018-03-29T07:05:03.306Z,968.06
2018-03-29T07:06:03.314Z,968.05
2018-03-29T07:07:03.146Z,968.10
2018-03-29T07:08:03.120Z,968.11
2018-03-29T07:09:02.993Z,968.08
2018-03-29T07:10:02.927Z,968.10
2018-03-29T07:11:02.830Z,968.08
2018-03-29T07:12:02.839Z,968.07
2018-03-29T07:13:02.673Z,968.09
2018-03-29T07:14:02.648Z,968.09
2018-03-29T07:15:02.562Z,968.08
2018-03-29T07:16:02.456Z,968.07
2018-03-29T07:17:02.360Z,968.10
2018-03-29T07:18:02.364Z,968.10
2018-03-29T07:19:02.206Z,968.13
2018-03-29T07:20:02.176Z,968.16
2018-03-29T07:21:02.042Z,968.14
2018-03-29T07:22:01.984Z,968.19
2018-03-29T07:23:01.885Z,968.23
2018-03-29T07:24:01.893Z,968.17
2018-03-29T07:25:01.722Z,968.21
2018-03-29T07:26:01.704Z,968.20
2018-03-29T07:27:01.573Z,968.24
2018-03-29T07:28:01.511Z,968.19
2018-03-29T07:29:01.414Z,968.20
2018-03-29T07:30:01.426Z,968.16
2018-03-29T07:31:01.258Z,968.15
2018-03-29T07:32:01.232Z,968.18
2018-03-29T07:33:01.095Z,968.12
2018-03-29T07:34:01.044Z,968.11
2018-03-29T07:35:00.936Z,968.15
2018-03-29T07:36:00.949Z,968.17
2018-03-29T07:37:00.787Z,968.20
2018-03-29T07:38:00.758Z,968.19
2018-03-29T07:39:00.630Z,968.19
2018-03-29T07:40:00.565Z,968.27
2018-03-29T07:41:00.470Z,968.24
2018-03-29T07:42:00.476Z,968.27
2018-03-29T07:43:00.306Z,968.20
2018-03-29T07:44:00.287Z,968.25
2018-03-29T07:45:00.156Z,968.25
2018-03-29T07:46:00.093Z,968.18
2018-03-29T07:46:59.998Z,968.14
2018-03-29T07:48:00.004Z,968.09
2018-03-29T07:48:59.837Z,968.06
2018-03-29T07:49:59.811Z,968.03
2018-03-29T07:50:59.684Z,968.07
2018-03-29T07:52:00.647Z,968.07
2018-03-29T07:52:59.520Z,968.04
2018-03-29T07:53:59.530Z,968.11
2018-03-29T07:54:59.373Z,968.10
2018-03-29T07:55:59.339Z,968.17
2018-03-29T07:56:59.223Z,968.17
2018-03-29T07:57:59.196Z,968.14
2018-03-29T07:58:59.058Z,968.13
2018-03-29T07:59:59.060Z,968.16
2018-03-29T08:00:58.903Z,968.19
2018-03-29T08:01:58.866Z,968.18
2018-03-29T08:02:58.738Z,968.17
2018-03-29T08:03:58.779Z,968.17
2018-03-29T08:04:58.590Z,968.14
2018-03-29T08:05:58.588Z,968.14
2018-03-29T08:06:58.437Z,968.15
2018-03-29T08:07:58.393Z,968.13
2018-03-29T08:08:58.279Z,968.13
2018-03-29T08:09:58.307Z,968.20
2018-03-29T08:10:58.119Z,968.18
2018-03-29T08:11:58.113Z,968.17
2018-03-29T08:12:57.954Z,968.16
2018-03-29T08:13:57.922Z,968.15
2018-03-29T08:14:57.814Z,968.13
2018-03-29T08:15:57.828Z,968.13
2018-03-29T08:16:57.654Z,968.16
2018-03-29T08:17:57.642Z,968.14
2018-03-29T08:18:57.495Z,968.15
2018-03-29T08:19:57.452Z,968.10
2018-03-29T08:20:57.340Z,968.10
2018-03-29T08:21:57.362Z,968.09
2018-03-29T08:22:57.177Z,968.15
2018-03-29T08:23:57.168Z,968.16
2018-03-29T08:24:57.028Z,968.15
2018-03-29T08:25:56.977Z,968.17
2018-03-29T08:26:56.872Z,968.19
2018-03-29T08:27:56.890Z,968.22
2018-03-29T08:28:56.719Z,968.18
2018-03-29T08:29:56.638Z,968.21
2018-03-29T08:30:56.583Z,968.22
2018-03-29T08:31:56.479Z,968.23
2018-03-29T08:32:56.510Z,968.26
2018-03-29T08:33:56.318Z,968.29
2018-03-29T08:34:56.249Z,968.24
2018-03-29T08:35:56.224Z,968.26
2018-03-29T08:36:56.087Z,968.19
2018-03-29T08:37:56.033Z,968.12
2018-03-29T08:38:55.936Z,968.11
2018-03-29T08:39:55.857Z,968.07
2018-03-29T08:40:55.936Z,968.11
2018-03-29T08:41:55.709Z,968.12
2018-03-29T08:42:55.623Z,968.17
2018-03-29T08:43:55.548Z,968.10
2018-03-29T08:44:55.470Z,968.15
2018-03-29T08:45:55.394Z,968.16
2018-03-29T08:46:55.376Z,968.16
2018-03-29T08:47:55.236Z,968.17
2018-03-29T08:48:55.170Z,968.15
2018-03-29T08:49:55.086Z,968.16
2018-03-29T08:50:55.014Z,968.15
2018-03-29T08:51:55.090Z,968.19
2018-03-29T08:52:54.862Z,968.21
2018-03-29T08:53:54.903Z,968.24
2018-03-29T08:54:54.701Z,968.19
2018-03-29T08:55:54.812Z,968.23
2018-03-29T08:56:54.551Z,968.24
2018-03-29T08:57:54.531Z,968.26
2018-03-29T08:58:54.393Z,968.29
2018-03-29T08:59:54.432Z,968.28
2018-03-29T09:00:54.245Z,968.31
2018-03-29T09:01:54.346Z,968.29
2018-03-29T09:02:54.096Z,968.27
2018-03-29T09:03:54.149Z,968.26
2018-03-29T09:04:53.932Z,968.28
2018-03-29T09:05:53.960Z,968.26
2018-03-29T09:06:53.780Z,968.26
2018-03-29T09:07:53.707Z,968.27
2018-03-29T09:08:53.662Z,968.26
2018-03-29T09:09:53.549Z,968.24
2018-03-29T09:10:53.477Z,968.32
2018-03-29T09:11:53.401Z,968.35
2018-03-29T09:12:53.315Z,968.38
2018-03-29T09:13:53.241Z,968.35
2018-03-29T09:14:53.166Z,968.34
2018-03-29T09:15:53.083Z,968.39
2018-03-29T09:16:53.015Z,968.39
2018-03-29T09:17:53.123Z,968.35
2018-03-29T09:18:52.853Z,968.30
2018-03-29T09:19:52.932Z,968.32
2018-03-29T09:20:52.701Z,968.34
2018-03-29T09:21:52.740Z,968.31
2018-03-29T09:22:52.548Z,968.30
2018-03-29T09:23:52.655Z,968.31
2018-03-29T09:24:52.389Z,968.35
2018-03-29T09:25:52.359Z,968.28
2018-03-29T09:26:52.235Z,968.38
2018-03-29T09:27:54.214Z,968.34
2018-03-29T09:28:52.084Z,968.37
2018-03-29T09:29:53.099Z,968.37
2018-03-29T09:30:51.921Z,968.39
2018-03-29T09:31:51.849Z,968.38
2018-03-29T09:32:51.788Z,968.34
2018-03-29T09:33:51.697Z,968.30
2018-03-29T09:34:51.700Z,968.34
2018-03-29T09:35:51.537Z,968.36
2018-03-29T09:36:51.617Z,968.38
2018-03-29T09:37:51.382Z,968.40
2018-03-29T09:38:51.526Z,968.40
2018-03-29T09:39:51.235Z,968.40
2018-03-29T09:40:51.230Z,968.42
2018-03-29T09:41:51.074Z,968.43
2018-03-29T09:42:51.142Z,968.43
2018-03-29T09:43:50.925Z,968.43
2018-03-29T09:44:51.054Z,968.43
2018-03-29T09:45:50.771Z,968.46
2018-03-29T09:46:50.759Z,968.44
2018-03-29T09:47:50.606Z,968.47
2018-03-29T09:48:50.672Z,968.47
2018-03-29T09:49:50.459Z,968.47
2018-03-29T09:50:50.582Z,968.44
2018-03-29T09:51:50.300Z,968.47
2018-03-29T09:52:50.392Z,968.63
2018-03-29T09:53:50.144Z,968.54
2018-03-29T09:54:50.202Z,968.63
2018-03-29T09:55:49.993Z,968.59
2018-03-29T09:56:50.016Z,968.59
2018-03-29T09:57:49.843Z,968.58
2018-03-29T09:58:49.921Z,968.61
2018-03-29T09:59:49.690Z,968.58
2018-03-29T10:00:49.832Z,968.64
2018-03-29T10:01:49.538Z,968.58
2018-03-29T10:02:49.640Z,968.59
2018-03-29T10:03:49.381Z,968.60
2018-03-29T10:04:49.315Z,968.56
2018-03-29T10:05:49.458Z,968.57
2018-03-29T10:06:49.154Z,968.55
2018-03-29T10:07:49.164Z,968.59
2018-03-29T10:08:49.005Z,968.63
2018-03-29T10:09:48.973Z,968.61
2018-03-29T10:10:48.853Z,968.64
2018-03-29T10:11:48.879Z,968.62
2018-03-29T10:12:48.702Z,968.59
2018-03-29T10:13:48.695Z,968.55
2018-03-29T10:14:48.542Z,968.54
2018-03-29T10:15:48.478Z,968.55
2018-03-29T10:16:48.506Z,968.54
2018-03-29T10:17:48.317Z,968.48
2018-03-29T10:18:48.323Z,968.44
2018-03-29T10:19:48.166Z,968.45
2018-03-29T10:20:48.127Z,968.54
2018-03-29T10:21:48.014Z,968.51
2018-03-29T10:22:48.039Z,968.54
2018-03-29T10:23:47.861Z,968.59
2018-03-29T10:24:47.849Z,968.56
2018-03-29T10:25:47.709Z,968.55
2018-03-29T10:26:47.659Z,968.44
2018-03-29T10:27:47.559Z,968.40
2018-03-29T10:28:47.571Z,968.48
2018-03-29T10:29:47.411Z,968.47
2018-03-29T10:30:47.385Z,968.47
2018-03-29T10:31:47.262Z,968.47
2018-03-29T10:32:47.292Z,968.45
2018-03-29T10:33:47.104Z,968.47
2018-03-29T10:34:47.102Z,968.48
2018-03-29T10:35:47.023Z,968.53
2018-03-29T10:36:47.017Z,968.52
2018-03-29T10:37:46.816Z,968.57
2018-03-29T10:38:46.822Z,968.50
2018-03-29T10:39:46.658Z,968.58
2018-03-29T10:40:46.630Z,968.55
2018-03-29T10:41:46.504Z,968.54
2018-03-29T10:42:46.544Z,968.52
2018-03-29T10:43:46.350Z,968.56
2018-03-29T10:44:46.344Z,968.54
2018-03-29T10:45:46.196Z,968.51
2018-03-29T10:46:46.119Z,968.47
2018-03-29T10:47:46.164Z,968.50
2018-03-29T10:48:45.972Z,968.49
2018-03-29T10:49:45.974Z,968.40
2018-03-29T10:50:45.820Z,968.45
2018-03-29T10:51:45.888Z,968.53
2018-03-29T10:52:45.683Z,968.59
2018-03-29T10:53:45.696Z,968.59
2018-03-29T10:54:45.558Z,968.57
2018-03-29T10:55:45.503Z,968.61
2018-03-29T10:56:45.364Z,968.61
2018-03-29T10:57:45.414Z,968.60
2018-03-29T10:58:45.212Z,968.62
2018-03-29T10:59:45.140Z,968.59
2018-03-29T11:00:45.065Z,968.61
2018-03-29T11:01:44.991Z,968.61
2018-03-29T11:02:44.909Z,968.60
2018-03-29T11:03:44.834Z,968.55
2018-03-29T11:04:44.760Z,968.55
2018-03-29T11:05:44.687Z,968.57
2018-03-29T11:06:44.657Z,968.58
2018-03-29T11:07:44.531Z,968.65
2018-03-29T11:08:44.569Z,968.64
2018-03-29T11:09:44.382Z,968.62
2018-03-29T11:10:44.377Z,968.69
2018-03-29T11:11:44.229Z,968.66
2018-03-29T11:12:44.218Z,968.67
2018-03-29T11:13:44.075Z,968.66
2018-03-29T11:14:45.014Z,968.60
2018-03-29T11:15:43.926Z,968.60
2018-03-29T11:16:43.910Z,968.52
2018-03-29T11:17:43.770Z,968.50
2018-03-29T11:18:43.817Z,968.48
2018-03-29T11:19:43.619Z,968.43
2018-03-29T11:20:43.549Z,968.45
2018-03-29T11:21:43.532Z,968.44
2018-03-29T11:22:43.393Z,968.44
2018-03-29T11:23:43.446Z,968.50
2018-03-29T11:24:43.241Z,968.46
2018-03-29T11:25:43.252Z,968.42
2018-03-29T11:26:43.089Z,968.41
2018-03-29T11:27:43.163Z,968.42
2018-03-29T11:28:42.937Z,968.41
2018-03-29T11:29:42.972Z,968.38
2018-03-29T11:30:42.786Z,968.41
2018-03-29T11:31:42.715Z,968.41
2018-03-29T11:32:42.634Z,968.43
2018-03-29T11:33:43.577Z,968.46
2018-03-29T11:34:42.492Z,968.41
2018-03-29T11:35:42.407Z,968.40
2018-03-29T11:36:42.407Z,968.36
2018-03-29T11:37:42.260Z,968.34
2018-03-29T11:38:42.214Z,968.34
2018-03-29T11:39:42.104Z,968.31
2018-03-29T11:40:42.129Z,968.35
2018-03-29T11:41:41.952Z,968.37
2018-03-29T11:42:41.935Z,968.42
2018-03-29T11:43:41.797Z,968.40
2018-03-29T11:44:41.849Z,968.40
2018-03-29T11:45:41.647Z,968.40
2018-03-29T11:46:41.581Z,968.45
2018-03-29T11:47:41.495Z,968.43
2018-03-29T11:48:41.567Z,968.40
2018-03-29T11:49:41.346Z,968.36
2018-03-29T11:50:41.376Z,968.43
2018-03-29T11:51:41.201Z,968.35
2018-03-29T11:52:41.187Z,968.31
2018-03-29T11:53:41.039Z,968.32
2018-03-29T11:54:40.969Z,968.33
2018-03-29T11:55:41.009Z,968.31
2018-03-29T11:56:40.816Z,968.31
2018-03-29T11:57:40.811Z,968.31
2018-03-29T11:58:40.666Z,968.29
2018-03-29T11:59:40.587Z,968.29
2018-03-29T12:00:40.512Z,968.31
2018-03-29T12:01:40.450Z,968.30
2018-03-29T12:02:40.362Z,968.29
2018-03-29T12:03:40.292Z,968.29
2018-03-29T12:04:40.347Z,968.29
2018-03-29T12:05:40.138Z,968.24
2018-03-29T12:06:40.072Z,968.19
2018-03-29T12:07:39.988Z,968.15
2018-03-29T12:08:40.068Z,968.10
2018-03-29T12:09:39.842Z,968.06
2018-03-29T12:10:39.757Z,968.04
2018-03-29T12:11:39.686Z,968.00
2018-03-29T12:12:39.686Z,968.03
2018-03-29T12:13:39.547Z,967.95
2018-03-29T12:14:39.599Z,967.96
2018-03-29T12:15:39.378Z,967.97
2018-03-29T12:16:39.304Z,967.97
2018-03-29T12:17:39.229Z,967.99
2018-03-29T12:18:39.272Z,967.95
2018-03-29T12:19:39.076Z,967.96
2018-03-29T12:20:39.123Z,967.92
2018-03-29T12:21:38.952Z,967.93
2018-03-29T12:22:38.857Z,967.95
2018-03-29T12:23:38.955Z,967.93
2018-03-29T12:24:38.768Z,967.96
2018-03-29T12:25:38.759Z,968.00
2018-03-29T12:26:38.561Z,968.02
2018-03-29T12:27:38.566Z,968.04